Terminal Aerodrome Forecast
Issued by NWS Goodland, KS

Home | Current Version | Previous Version | Text Only | Print | Product List | Glossary On
Versions: 1 2 3 4 5 6 7 8 9 10 11 12 13 14
000
FTUS43 KGLD 192338
TAFGLD
TAF
KGLD 192338Z 2000/2024 20013G22KT P6SM SKC
     FM200100 20010KT P6SM SCT080
     FM201200 26006KT P6SM SCT110
     FM201500 01010KT P6SM SKC
     FM201900 07008KT P6SM SCT060=

USA.gov is the U.S. government's official web portal to all federal, state and local government web resources and services.